createdAt,value
2018-12-13T00:03:29.056Z,-0.50
2018-12-13T00:08:16.344Z,-0.50
2018-12-13T00:17:59.953Z,-0.50
2018-12-13T00:22:50.189Z,-0.60
2018-12-13T00:27:36.043Z,-0.60
2018-12-13T00:32:21.479Z,-0.60
2018-12-13T00:37:08.616Z,-0.50
2018-12-13T00:42:02.955Z,-0.40
2018-12-13T00:46:56.810Z,-0.50
2018-12-13T00:51:50.460Z,-0.50
2018-12-13T00:56:36.825Z,-0.60
2018-12-13T01:01:30.780Z,-0.70
2018-12-13T01:06:31.012Z,-0.70
2018-12-13T01:11:22.592Z,-0.90
2018-12-13T01:21:03.116Z,-1.10
2018-12-13T01:25:54.355Z,-1.30
2018-12-13T01:30:50.960Z,-1.40
2018-12-13T01:35:44.327Z,-1.70
2018-12-13T01:40:31.934Z,-2.00
2018-12-13T01:45:20.611Z,-2.30
2018-12-13T01:50:14.256Z,-2.40
2018-12-13T02:00:23.146Z,-2.40
2018-12-13T02:05:17.567Z,-2.50
2018-12-13T02:10:03.469Z,-2.50
2018-12-13T02:15:00.910Z,-2.60
2018-12-13T02:19:46.736Z,-2.60
2018-12-13T02:24:42.436Z,-2.60
2018-12-13T02:29:32.762Z,-2.60
2018-12-13T02:34:22.321Z,-2.60
2018-12-13T02:39:21.819Z,-2.50
2018-12-13T02:44:08.800Z,-2.60
2018-12-13T02:49:08.195Z,-2.60
2018-12-13T02:54:01.714Z,-2.70
2018-12-13T02:58:47.209Z,-2.70
2018-12-13T03:03:32.884Z,-2.90
2018-12-13T03:08:18.136Z,-2.90
2018-12-13T03:13:03.395Z,-2.80
2018-12-13T03:17:49.046Z,-2.80
2018-12-13T03:22:34.835Z,-2.80
2018-12-13T03:27:33.441Z,-2.70
2018-12-13T03:32:21.495Z,-2.60
2018-12-13T03:37:06.962Z,-2.60
2018-12-13T03:42:00.437Z,-2.60
2018-12-13T03:46:54.245Z,-2.50
2018-12-13T03:51:48.153Z,-2.50
2018-12-13T03:56:43.626Z,-2.50
2018-12-13T04:01:37.624Z,-2.40
2018-12-13T04:11:29.776Z,-2.50
2018-12-13T04:16:13.689Z,-2.40
2018-12-13T04:20:57.780Z,-2.30
2018-12-13T04:25:41.409Z,-2.20
2018-12-13T04:30:25.209Z,-2.00
2018-12-13T04:35:08.821Z,-2.00
2018-12-13T04:39:52.687Z,-2.00
2018-12-13T04:44:37.841Z,-2.00
2018-12-13T04:49:21.897Z,-1.80
2018-12-13T04:54:05.545Z,-1.70
2018-12-13T04:58:49.518Z,-1.60
2018-12-13T05:03:33.207Z,-1.50
2018-12-13T05:08:16.989Z,-1.50
2018-12-13T05:13:00.796Z,-1.40
2018-12-13T05:17:44.602Z,-1.30
2018-12-13T05:22:28.462Z,-1.20
2018-12-13T05:27:12.063Z,-1.10
2018-12-13T05:31:55.796Z,-1.10
2018-12-13T05:36:39.512Z,-1.10
2018-12-13T05:41:23.266Z,-1.10
2018-12-13T05:46:07.231Z,-1.10
2018-12-13T05:50:54.406Z,-1.10
2018-12-13T05:55:48.171Z,-1.00
2018-12-13T06:05:43.228Z,-1.00
2018-12-13T06:10:27.026Z,-1.00
2018-12-13T06:15:10.778Z,-0.90
2018-12-13T06:19:54.508Z,-1.00
2018-12-13T06:24:39.840Z,-1.00
2018-12-13T06:29:30.944Z,-1.00
2018-12-13T06:34:14.759Z,-1.00
2018-12-13T06:38:58.461Z,-1.00
2018-12-13T06:43:42.181Z,-1.00
2018-12-13T06:48:25.956Z,-1.00
2018-12-13T06:53:09.648Z,-0.90
2018-12-13T06:57:53.345Z,-0.90
2018-12-13T07:02:37.128Z,-1.00
2018-12-13T07:07:20.801Z,-0.90
2018-12-13T07:12:05.466Z,-1.00
2018-12-13T07:16:49.175Z,-1.00
2018-12-13T07:21:32.906Z,-1.00
2018-12-13T07:26:16.633Z,-0.90
2018-12-13T07:31:00.351Z,-0.90
2018-12-13T07:35:50.633Z,-1.00
2018-12-13T07:45:42.250Z,-0.80
2018-12-13T07:50:26.069Z,-0.80
2018-12-13T07:55:09.710Z,-0.80
2018-12-13T07:59:53.411Z,-0.70
2018-12-13T08:04:37.080Z,-0.80
2018-12-13T08:09:20.702Z,-0.70
2018-12-13T08:14:04.795Z,-0.70
2018-12-13T08:18:48.521Z,-0.60
2018-12-13T08:23:32.173Z,-0.60
2018-12-13T08:28:15.926Z,-0.40
2018-12-13T08:32:59.660Z,-0.30
2018-12-13T08:37:43.363Z,-0.40
2018-12-13T08:42:27.033Z,-0.30
2018-12-13T08:47:10.725Z,-0.10
2018-12-13T08:51:54.388Z,-0.20
2018-12-13T08:56:38.124Z,-0.10
2018-12-13T09:01:21.799Z,0.00
2018-12-13T09:06:05.532Z,0.00
2018-12-13T09:10:49.255Z,0.00
2018-12-13T09:15:33.070Z,0.10
2018-12-13T09:20:16.746Z,0.20
2018-12-13T09:25:00.471Z,0.20
2018-12-13T09:29:44.140Z,0.10
2018-12-13T09:34:27.882Z,0.10
2018-12-13T09:39:11.644Z,0.20
2018-12-13T09:43:55.756Z,0.30
2018-12-13T09:48:39.578Z,0.30
2018-12-13T09:53:23.500Z,0.50
2018-12-13T09:58:07.361Z,0.60
2018-12-13T10:02:51.168Z,0.60
2018-12-13T10:07:34.904Z,0.90
2018-12-13T10:12:18.866Z,1.00
2018-12-13T10:17:02.650Z,1.00
2018-12-13T10:21:46.438Z,0.90
2018-12-13T10:26:30.132Z,1.00
2018-12-13T10:31:13.913Z,0.80
2018-12-13T10:35:57.605Z,1.00
2018-12-13T10:40:41.409Z,1.00
2018-12-13T10:45:25.132Z,1.20
2018-12-13T10:50:09.026Z,1.10
2018-12-13T10:54:52.808Z,1.00
2018-12-13T10:59:36.482Z,0.80
2018-12-13T11:04:20.180Z,0.80
2018-12-13T11:09:05.228Z,0.80
2018-12-13T11:13:48.967Z,0.80
2018-12-13T11:18:33.192Z,0.80
2018-12-13T11:23:17.112Z,0.90
2018-12-13T11:30:26.751Z,1.00
2018-12-13T11:35:10.666Z,1.00
2018-12-13T11:39:54.405Z,1.20
2018-12-13T11:44:38.127Z,1.20
2018-12-13T11:49:21.957Z,1.40
2018-12-13T11:54:08.351Z,1.30
2018-12-13T11:58:52.081Z,1.40
2018-12-13T12:03:35.763Z,1.60
2018-12-13T12:08:19.451Z,1.70
2018-12-13T12:13:03.153Z,1.80
2018-12-13T12:17:46.968Z,1.80
2018-12-13T12:22:30.682Z,1.60
2018-12-13T12:27:14.472Z,1.60
2018-12-13T12:31:58.143Z,1.60
2018-12-13T12:36:41.969Z,1.70
2018-12-13T12:41:25.812Z,1.60
2018-12-13T12:46:09.642Z,1.60
2018-12-13T12:50:53.385Z,1.70
2018-12-13T12:55:37.151Z,1.70
2018-12-13T13:00:20.833Z,1.80
2018-12-13T13:05:05.237Z,1.60
2018-12-13T13:09:49.034Z,1.30
2018-12-13T13:14:32.817Z,1.30
2018-12-13T13:19:16.531Z,1.10
2018-12-13T13:24:00.137Z,1.20
2018-12-13T13:28:43.869Z,1.30
2018-12-13T13:33:27.761Z,1.20
2018-12-13T13:38:11.442Z,1.20
2018-12-13T13:42:55.236Z,1.20
2018-12-13T13:47:53.025Z,1.10
2018-12-13T13:52:49.147Z,0.90
2018-12-13T13:57:43.245Z,0.90
2018-12-13T14:02:39.883Z,0.90
2018-12-13T14:07:25.325Z,0.80
2018-12-13T14:12:21.621Z,0.70
2018-12-13T14:17:23.986Z,0.60
2018-12-13T14:22:07.668Z,0.60
2018-12-13T14:26:51.464Z,0.60
2018-12-13T14:31:35.487Z,0.70
2018-12-13T14:36:19.375Z,0.70
2018-12-13T14:41:03.199Z,0.60
2018-12-13T14:45:47.016Z,0.60
2018-12-13T14:50:30.765Z,0.60
2018-12-13T14:55:14.428Z,0.50
2018-12-13T14:59:58.223Z,0.40
2018-12-13T15:04:41.915Z,0.40
2018-12-13T15:09:25.680Z,0.40
2018-12-13T15:14:09.575Z,0.30
2018-12-13T15:24:02.313Z,0.30
2018-12-13T15:28:51.884Z,0.40
2018-12-13T15:38:47.217Z,0.30
2018-12-13T15:43:30.914Z,0.30
2018-12-13T15:48:14.797Z,0.30
2018-12-13T15:53:00.355Z,0.30
2018-12-13T15:57:46.107Z,0.40
2018-12-13T16:02:41.639Z,0.50
2018-12-13T16:07:37.449Z,0.50
2018-12-13T16:12:21.132Z,0.50
2018-12-13T16:17:05.039Z,0.40
2018-12-13T16:21:48.808Z,0.50
2018-12-13T16:26:33.135Z,0.60
2018-12-13T16:31:17.698Z,0.70
2018-12-13T16:36:01.773Z,0.80
2018-12-13T16:40:45.567Z,0.90
2018-12-13T16:45:29.413Z,0.80
2018-12-13T16:50:13.160Z,0.80
2018-12-13T16:54:58.052Z,0.70
2018-12-13T16:59:41.767Z,0.80
2018-12-13T17:04:27.065Z,0.90
2018-12-13T17:09:10.936Z,0.80
2018-12-13T17:13:54.912Z,0.80
2018-12-13T17:18:39.779Z,0.80
2018-12-13T17:23:23.650Z,0.80
2018-12-13T17:28:07.417Z,0.80
2018-12-13T17:32:51.199Z,0.80
2018-12-13T17:37:34.931Z,0.80
2018-12-13T17:42:18.739Z,0.80
2018-12-13T17:47:02.999Z,0.80
2018-12-13T17:51:46.822Z,0.90
2018-12-13T17:56:30.938Z,0.90
2018-12-13T18:01:15.084Z,0.90
2018-12-13T18:05:58.692Z,0.80
2018-12-13T18:10:42.436Z,0.70
2018-12-13T18:15:26.268Z,0.60
2018-12-13T18:20:10.085Z,0.60
2018-12-13T18:24:55.719Z,0.70
2018-12-13T18:29:49.280Z,0.70
2018-12-13T18:34:45.567Z,0.60
2018-12-13T18:44:41.324Z,0.70
2018-12-13T18:49:25.105Z,0.70
2018-12-13T18:54:09.028Z,0.60
2018-12-13T18:58:59.601Z,0.60
2018-12-13T19:03:48.854Z,0.50
2018-12-13T19:08:39.884Z,0.50
2018-12-13T19:13:23.758Z,0.60
2018-12-13T19:18:10.611Z,0.60
2018-12-13T19:23:12.128Z,0.70
2018-12-13T19:28:05.837Z,0.60
2018-12-13T19:32:55.876Z,0.60
2018-12-13T19:37:46.760Z,0.50
2018-12-13T19:42:36.945Z,0.50
2018-12-13T19:47:32.538Z,0.50
2018-12-13T19:52:20.171Z,0.50
2018-12-13T20:07:25.800Z,0.50
2018-12-13T20:12:13.314Z,0.50
2018-12-13T20:17:13.302Z,0.60
2018-12-13T20:21:58.852Z,0.50
2018-12-13T20:26:45.126Z,0.50
2018-12-13T20:31:28.860Z,0.50
2018-12-13T20:36:13.543Z,0.50
2018-12-13T20:41:00.944Z,0.40
2018-12-13T20:45:43.308Z,0.40
2018-12-13T20:50:27.039Z,0.40
2018-12-13T20:55:10.716Z,0.40
2018-12-13T20:59:54.512Z,0.30
2018-12-13T21:04:38.325Z,0.50
2018-12-13T21:09:22.050Z,0.30
2018-12-13T21:14:06.534Z,0.30
2018-12-13T21:18:50.289Z,0.20
2018-12-13T21:23:33.951Z,0.20
2018-12-13T21:28:17.671Z,0.40
2018-12-13T21:33:01.384Z,0.40
2018-12-13T21:37:45.080Z,0.30
2018-12-13T21:42:29.275Z,0.20
2018-12-13T21:47:12.925Z,0.20
2018-12-13T21:51:56.608Z,0.20
2018-12-13T21:56:41.574Z,0.20
2018-12-13T22:01:25.311Z,0.20
2018-12-13T22:06:09.000Z,0.20
2018-12-13T22:10:52.786Z,0.10
2018-12-13T22:15:36.584Z,0.20
2018-12-13T22:20:20.475Z,0.10
2018-12-13T22:25:04.511Z,0.00
2018-12-13T22:29:48.384Z,0.10
2018-12-13T22:34:32.453Z,0.00
2018-12-13T22:39:16.260Z,0.10
2018-12-13T22:44:00.148Z,0.10
2018-12-13T22:48:43.892Z,0.10
2018-12-13T22:53:27.764Z,0.10
2018-12-13T22:58:11.687Z,0.00
2018-12-13T23:02:55.439Z,0.00
2018-12-13T23:07:39.155Z,0.10
2018-12-13T23:12:22.870Z,0.10
2018-12-13T23:17:07.317Z,0.00
2018-12-13T23:21:51.099Z,0.00
2018-12-13T23:26:34.993Z,0.00
2018-12-13T23:31:18.852Z,-0.10
2018-12-13T23:36:02.703Z,-0.10
2018-12-13T23:40:46.478Z,0.00
2018-12-13T23:45:30.371Z,0.00
2018-12-13T23:50:14.222Z,0.00
2018-12-13T23:54:57.950Z,-0.10
2018-12-13T23:59:41.857Z,-0.10
